sensor_id;sensor_type;location;lat;lon;timestamp;temperature;humidity
45383;DHT22;42455;51.660;5.824;2022-07-22T00:00:06;18.6;98.0
45383;DHT22;42455;51.660;5.824;2022-07-22T00:05:11;18.6;97.5
45383;DHT22;42455;51.660;5.824;2022-07-22T00:10:17;18.6;97.5
45383;DHT22;42455;51.660;5.824;2022-07-22T00:15:23;18.5;97.5
45383;DHT22;42455;51.660;5.824;2022-07-22T00:20:29;18.5;97.5
45383;DHT22;42455;51.660;5.824;2022-07-22T00:25:35;18.5;97.5
45383;DHT22;42455;51.660;5.824;2022-07-22T00:30:42;18.5;97.5
45383;DHT22;42455;51.660;5.824;2022-07-22T00:35:48;18.5;97.5
45383;DHT22;42455;51.660;5.824;2022-07-22T00:40:54;18.5;97.5
45383;DHT22;42455;51.660;5.824;2022-07-22T00:46:00;18.5;97.5
45383;DHT22;42455;51.660;5.824;2022-07-22T00:51:06;18.5;97.5
45383;DHT22;42455;51.660;5.824;2022-07-22T00:56:13;18.5;97.5
45383;DHT22;42455;51.660;5.824;2022-07-22T01:01:19;18.5;97.5
45383;DHT22;42455;51.660;5.824;2022-07-22T01:06:25;18.5;97.5
45383;DHT22;42455;51.660;5.824;2022-07-22T01:11:32;18.5;97.5
45383;DHT22;42455;51.660;5.824;2022-07-22T01:16:38;18.5;97.5
45383;DHT22;42455;51.660;5.824;2022-07-22T01:21:44;18.5;97.5
45383;DHT22;42455;51.660;5.824;2022-07-22T01:26:50;18.5;97.5
45383;DHT22;42455;51.660;5.824;2022-07-22T01:31:56;18.5;97.5
45383;DHT22;42455;51.660;5.824;2022-07-22T01:37:02;18.5;97.5
45383;DHT22;42455;51.660;5.824;2022-07-22T01:42:09;18.5;97.5
45383;DHT22;42455;51.660;5.824;2022-07-22T01:47:15;18.5;97.5
45383;DHT22;42455;51.660;5.824;2022-07-22T01:52:21;18.5;97.5
45383;DHT22;42455;51.660;5.824;2022-07-22T01:57:27;18.5;97.5
45383;DHT22;42455;51.660;5.824;2022-07-22T02:02:34;18.5;97.5
45383;DHT22;42455;51.660;5.824;2022-07-22T02:07:40;18.5;97.5
45383;DHT22;42455;51.660;5.824;2022-07-22T02:12:46;18.5;97.5
45383;DHT22;42455;51.660;5.824;2022-07-22T02:17:53;18.5;97.5
45383;DHT22;42455;51.660;5.824;2022-07-22T02:22:58;18.5;97.5
45383;DHT22;42455;51.660;5.824;2022-07-22T02:28:04;18.5;97.5
45383;DHT22;42455;51.660;5.824;2022-07-22T02:33:11;18.5;97.5
45383;DHT22;42455;51.660;5.824;2022-07-22T02:38:17;18.5;97.5
45383;DHT22;42455;51.660;5.824;2022-07-22T02:43:23;18.5;97.5
45383;DHT22;42455;51.660;5.824;2022-07-22T02:48:29;18.5;97.5
45383;DHT22;42455;51.660;5.824;2022-07-22T02:53:35;18.5;97.5
45383;DHT22;42455;51.660;5.824;2022-07-22T02:58:42;18.5;97.5
45383;DHT22;42455;51.660;5.824;2022-07-22T03:03:48;18.5;97.5
45383;DHT22;42455;51.660;5.824;2022-07-22T03:08:54;18.6;97.5
45383;DHT22;42455;51.660;5.824;2022-07-22T03:14:00;18.6;97.5
45383;DHT22;42455;51.660;5.824;2022-07-22T03:19:07;18.5;97.5
45383;DHT22;42455;51.660;5.824;2022-07-22T03:24:13;18.6;97.5
45383;DHT22;42455;51.660;5.824;2022-07-22T03:29:19;18.5;98.0
45383;DHT22;42455;51.660;5.824;2022-07-22T03:34:25;18.6;98.0
45383;DHT22;42455;51.660;5.824;2022-07-22T03:39:31;18.6;98.0
45383;DHT22;42455;51.660;5.824;2022-07-22T03:44:37;18.6;98.0
45383;DHT22;42455;51.660;5.824;2022-07-22T03:54:49;18.6;98.0
45383;DHT22;42455;51.660;5.824;2022-07-22T03:59:55;18.6;98.0
45383;DHT22;42455;51.660;5.824;2022-07-22T04:05:01;18.6;98.0
45383;DHT22;42455;51.660;5.824;2022-07-22T04:10:08;18.6;98.0
45383;DHT22;42455;51.660;5.824;2022-07-22T04:15:13;18.6;98.0
45383;DHT22;42455;51.660;5.824;2022-07-22T04:20:19;18.6;98.0
45383;DHT22;42455;51.660;5.824;2022-07-22T04:25:25;18.6;98.0
45383;DHT22;42455;51.660;5.824;2022-07-22T04:30:32;18.6;98.0
45383;DHT22;42455;51.660;5.824;2022-07-22T04:35:38;18.6;98.0
45383;DHT22;42455;51.660;5.824;2022-07-22T04:40:44;18.7;98.0
45383;DHT22;42455;51.660;5.824;2022-07-22T04:45:50;18.7;98.0
45383;DHT22;42455;51.660;5.824;2022-07-22T04:50:58;18.7;98.0
45383;DHT22;42455;51.660;5.824;2022-07-22T04:56:03;18.7;98.0
45383;DHT22;42455;51.660;5.824;2022-07-22T05:01:09;18.7;98.0
45383;DHT22;42455;51.660;5.824;2022-07-22T05:06:15;18.7;98.0
45383;DHT22;42455;51.660;5.824;2022-07-22T05:11:21;18.8;98.0
45383;DHT22;42455;51.660;5.824;2022-07-22T05:16:27;18.8;98.0
45383;DHT22;42455;51.660;5.824;2022-07-22T05:21:34;18.8;97.5
45383;DHT22;42455;51.660;5.824;2022-07-22T05:26:40;18.9;97.5
45383;DHT22;42455;51.660;5.824;2022-07-22T05:31:46;18.9;97.5
45383;DHT22;42455;51.660;5.824;2022-07-22T05:36:52;18.9;97.5
45383;DHT22;42455;51.660;5.824;2022-07-22T05:41:58;19.0;97.5
45383;DHT22;42455;51.660;5.824;2022-07-22T05:47:05;19.0;97.5
45383;DHT22;42455;51.660;5.824;2022-07-22T05:52:11;19.1;97.0
45383;DHT22;42455;51.660;5.824;2022-07-22T05:57:17;19.1;97.0
45383;DHT22;42455;51.660;5.824;2022-07-22T06:02:24;19.2;97.0
45383;DHT22;42455;51.660;5.824;2022-07-22T06:07:29;19.2;96.5
45383;DHT22;42455;51.660;5.824;2022-07-22T06:12:36;19.3;96.5
45383;DHT22;42455;51.660;5.824;2022-07-22T06:22:48;19.4;96.0
45383;DHT22;42455;51.660;5.824;2022-07-22T06:27:54;19.5;96.0
45383;DHT22;42455;51.660;5.824;2022-07-22T06:33:01;19.6;96.0
45383;DHT22;42455;51.660;5.824;2022-07-22T06:38:07;19.6;95.5
45383;DHT22;42455;51.660;5.824;2022-07-22T06:43:13;19.7;95.0
45383;DHT22;42455;51.660;5.824;2022-07-22T06:48:19;19.8;95.0
45383;DHT22;42455;51.660;5.824;2022-07-22T06:53:25;19.8;94.5
45383;DHT22;42455;51.660;5.824;2022-07-22T06:58:32;19.9;94.5
45383;DHT22;42455;51.660;5.824;2022-07-22T07:03:38;20.0;94.5
45383;DHT22;42455;51.660;5.824;2022-07-22T07:08:44;20.0;94.0
45383;DHT22;42455;51.660;5.824;2022-07-22T07:13:50;20.2;94.0
45383;DHT22;42455;51.660;5.824;2022-07-22T07:18:56;20.3;93.5
45383;DHT22;42455;51.660;5.824;2022-07-22T07:24:03;20.4;93.5
45383;DHT22;42455;51.660;5.824;2022-07-22T07:29:09;20.5;93.0
45383;DHT22;42455;51.660;5.824;2022-07-22T07:34:15;20.6;92.5
45383;DHT22;42455;51.660;5.824;2022-07-22T07:39:21;20.8;92.5
45383;DHT22;42455;51.660;5.824;2022-07-22T07:44:27;20.9;92.0
45383;DHT22;42455;51.660;5.824;2022-07-22T07:49:34;20.9;91.5
45383;DHT22;42455;51.660;5.824;2022-07-22T07:54:40;20.9;91.0
45383;DHT22;42455;51.660;5.824;2022-07-22T07:59:46;20.9;91.0
45383;DHT22;42455;51.660;5.824;2022-07-22T08:04:52;20.9;90.5
45383;DHT22;42455;51.660;5.824;2022-07-22T08:09:59;21.0;90.5
45383;DHT22;42455;51.660;5.824;2022-07-22T08:15:05;21.0;90.5
45383;DHT22;42455;51.660;5.824;2022-07-22T08:20:11;21.2;90.5
45383;DHT22;42455;51.660;5.824;2022-07-22T08:25:18;21.4;90.0
45383;DHT22;42455;51.660;5.824;2022-07-22T08:30:24;21.5;89.5
45383;DHT22;42455;51.660;5.824;2022-07-22T08:35:30;21.5;88.5
45383;DHT22;42455;51.660;5.824;2022-07-22T08:40:36;21.5;88.5
45383;DHT22;42455;51.660;5.824;2022-07-22T08:45:42;21.6;88.0
45383;DHT22;42455;51.660;5.824;2022-07-22T08:50:48;21.6;88.0
45383;DHT22;42455;51.660;5.824;2022-07-22T08:55:54;21.7;87.5
45383;DHT22;42455;51.660;5.824;2022-07-22T09:01:04;21.9;87.0
45383;DHT22;42455;51.660;5.824;2022-07-22T09:06:07;22.2;87.0
45383;DHT22;42455;51.660;5.824;2022-07-22T09:11:28;22.5;85.5
45383;DHT22;42455;51.660;5.824;2022-07-22T09:16:37;22.7;85.5
45383;DHT22;42455;51.660;5.824;2022-07-22T09:21:29;23.0;85.0
45383;DHT22;42455;51.660;5.824;2022-07-22T09:26:37;23.3;83.5
45383;DHT22;42455;51.660;5.824;2022-07-22T09:31:38;23.5;82.0
45383;DHT22;42455;51.660;5.824;2022-07-22T09:36:53;23.6;78.5
45383;DHT22;42455;51.660;5.824;2022-07-22T09:41:56;23.5;78.5
45383;DHT22;42455;51.660;5.824;2022-07-22T09:46:55;23.5;78.0
45383;DHT22;42455;51.660;5.824;2022-07-22T09:52:03;23.6;77.0
45383;DHT22;42455;51.660;5.824;2022-07-22T09:57:08;23.6;76.5
45383;DHT22;42455;51.660;5.824;2022-07-22T10:02:16;23.5;76.5
45383;DHT22;42455;51.660;5.824;2022-07-22T10:07:22;23.4;77.5
45383;DHT22;42455;51.660;5.824;2022-07-22T10:12:27;23.5;77.5
45383;DHT22;42455;51.660;5.824;2022-07-22T10:17:33;23.5;77.0
45383;DHT22;42455;51.660;5.824;2022-07-22T10:22:55;23.5;78.0
45383;DHT22;42455;51.660;5.824;2022-07-22T10:27:58;23.4;79.0
45383;DHT22;42455;51.660;5.824;2022-07-22T10:33:03;23.3;79.0
45383;DHT22;42455;51.660;5.824;2022-07-22T10:38:02;23.3;79.5
45383;DHT22;42455;51.660;5.824;2022-07-22T10:43:09;23.2;79.5
45383;DHT22;42455;51.660;5.824;2022-07-22T10:48:17;23.3;79.5
45383;DHT22;42455;51.660;5.824;2022-07-22T10:53:19;23.4;78.0
45383;DHT22;42455;51.660;5.824;2022-07-22T10:58:51;23.6;77.0
45383;DHT22;42455;51.660;5.824;2022-07-22T11:03:31;23.8;77.5
45383;DHT22;42455;51.660;5.824;2022-07-22T11:08:35;24.0;77.0
45383;DHT22;42455;51.660;5.824;2022-07-22T11:13:42;24.1;77.5
45383;DHT22;42455;51.660;5.824;2022-07-22T11:18:54;24.2;77.0
45383;DHT22;42455;51.660;5.824;2022-07-22T11:23:55;24.2;77.0
45383;DHT22;42455;51.660;5.824;2022-07-22T11:29:00;24.2;76.5
45383;DHT22;42455;51.660;5.824;2022-07-22T11:34:08;24.1;76.5
45383;DHT22;42455;51.660;5.824;2022-07-22T11:39:14;24.1;77.0
45383;DHT22;42455;51.660;5.824;2022-07-22T11:44:19;24.3;76.5
45383;DHT22;42455;51.660;5.824;2022-07-22T11:49:27;24.4;75.5
45383;DHT22;42455;51.660;5.824;2022-07-22T11:54:31;24.4;75.5
45383;DHT22;42455;51.660;5.824;2022-07-22T11:59:37;24.4;75.5
45383;DHT22;42455;51.660;5.824;2022-07-22T12:04:45;24.3;75.5
45383;DHT22;42455;51.660;5.824;2022-07-22T12:09:49;24.3;74.5
45383;DHT22;42455;51.660;5.824;2022-07-22T12:14:57;24.5;75.5
45383;DHT22;42455;51.660;5.824;2022-07-22T12:20:12;24.8;74.5
45383;DHT22;42455;51.660;5.824;2022-07-22T12:25:08;24.9;74.0
45383;DHT22;42455;51.660;5.824;2022-07-22T12:30:14;25.1;73.5
45383;DHT22;42455;51.660;5.824;2022-07-22T12:35:20;25.3;72.5
45383;DHT22;42455;51.660;5.824;2022-07-22T12:40:27;25.4;72.5
45383;DHT22;42455;51.660;5.824;2022-07-22T12:45:34;25.5;72.0
45383;DHT22;42455;51.660;5.824;2022-07-22T12:50:41;25.5;71.5
45383;DHT22;42455;51.660;5.824;2022-07-22T12:55:46;25.6;71.0
45383;DHT22;42455;51.660;5.824;2022-07-22T13:00:54;25.8;71.5
45383;DHT22;42455;51.660;5.824;2022-07-22T13:05:59;26.0;70.5
45383;DHT22;42455;51.660;5.824;2022-07-22T13:11:04;26.2;70.5
45383;DHT22;42455;51.660;5.824;2022-07-22T13:21:16;26.3;69.5
45383;DHT22;42455;51.660;5.824;2022-07-22T13:26:23;26.3;69.5
45383;DHT22;42455;51.660;5.824;2022-07-22T13:31:29;26.5;69.5
45383;DHT22;42455;51.660;5.824;2022-07-22T13:36:35;26.5;69.0
45383;DHT22;42455;51.660;5.824;2022-07-22T13:41:41;26.4;68.5
45383;DHT22;42455;51.660;5.824;2022-07-22T13:46:47;26.3;68.0
45383;DHT22;42455;51.660;5.824;2022-07-22T13:51:53;26.2;68.0
45383;DHT22;42455;51.660;5.824;2022-07-22T13:57:00;26.0;67.5
45383;DHT22;42455;51.660;5.824;2022-07-22T14:02:06;25.9;68.0
45383;DHT22;42455;51.660;5.824;2022-07-22T14:07:12;25.9;68.0
45383;DHT22;42455;51.660;5.824;2022-07-22T14:12:18;25.8;69.0
45383;DHT22;42455;51.660;5.824;2022-07-22T14:17:24;25.9;69.0
45383;DHT22;42455;51.660;5.824;2022-07-22T14:22:31;26.0;69.0
45383;DHT22;42455;51.660;5.824;2022-07-22T14:27:37;26.1;69.0
45383;DHT22;42455;51.660;5.824;2022-07-22T14:32:43;26.2;68.5
45383;DHT22;42455;51.660;5.824;2022-07-22T14:37:49;26.1;68.0
45383;DHT22;42455;51.660;5.824;2022-07-22T14:42:56;26.1;68.5
45383;DHT22;42455;51.660;5.824;2022-07-22T14:48:02;26.1;68.0
45383;DHT22;42455;51.660;5.824;2022-07-22T14:53:08;26.1;68.0
45383;DHT22;42455;51.660;5.824;2022-07-22T14:58:14;26.2;68.0
45383;DHT22;42455;51.660;5.824;2022-07-22T15:03:20;26.2;68.0
45383;DHT22;42455;51.660;5.824;2022-07-22T15:08:27;26.1;68.5
45383;DHT22;42455;51.660;5.824;2022-07-22T15:13:33;26.2;68.0
45383;DHT22;42455;51.660;5.824;2022-07-22T15:18:38;26.2;68.0
45383;DHT22;42455;51.660;5.824;2022-07-22T15:23:44;26.2;68.0
45383;DHT22;42455;51.660;5.824;2022-07-22T15:28:51;26.3;67.5
45383;DHT22;42455;51.660;5.824;2022-07-22T15:33:57;26.2;68.0
45383;DHT22;42455;51.660;5.824;2022-07-22T15:39:03;26.3;68.0
45383;DHT22;42455;51.660;5.824;2022-07-22T15:44:09;26.3;67.5
45383;DHT22;42455;51.660;5.824;2022-07-22T15:49:16;26.3;67.0
45383;DHT22;42455;51.660;5.824;2022-07-22T15:54:22;26.2;67.5
45383;DHT22;42455;51.660;5.824;2022-07-22T15:59:28;26.2;68.0
45383;DHT22;42455;51.660;5.824;2022-07-22T16:04:34;26.2;67.0
45383;DHT22;42455;51.660;5.824;2022-07-22T16:09:40;26.2;66.5
45383;DHT22;42455;51.660;5.824;2022-07-22T16:14:46;26.1;67.0
45383;DHT22;42455;51.660;5.824;2022-07-22T16:19:53;26.0;67.5
45383;DHT22;42455;51.660;5.824;2022-07-22T16:24:59;26.0;68.0
45383;DHT22;42455;51.660;5.824;2022-07-22T16:30:05;26.1;68.0
45383;DHT22;42455;51.660;5.824;2022-07-22T16:35:11;26.1;67.5
45383;DHT22;42455;51.660;5.824;2022-07-22T16:40:18;26.0;67.5
45383;DHT22;42455;51.660;5.824;2022-07-22T16:45:24;25.9;67.5
45383;DHT22;42455;51.660;5.824;2022-07-22T16:50:30;25.7;67.5
45383;DHT22;42455;51.660;5.824;2022-07-22T16:55:36;25.5;67.5
45383;DHT22;42455;51.660;5.824;2022-07-22T17:00:43;25.4;68.0
45383;DHT22;42455;51.660;5.824;2022-07-22T17:05:49;25.2;68.0
45383;DHT22;42455;51.660;5.824;2022-07-22T17:10:55;25.1;68.5
45383;DHT22;42455;51.660;5.824;2022-07-22T17:16:02;25.0;68.5
45383;DHT22;42455;51.660;5.824;2022-07-22T17:21:07;24.9;69.0
45383;DHT22;42455;51.660;5.824;2022-07-22T17:26:14;24.8;69.0
45383;DHT22;42455;51.660;5.824;2022-07-22T17:31:20;24.7;69.5
45383;DHT22;42455;51.660;5.824;2022-07-22T17:36:26;24.6;70.0
45383;DHT22;42455;51.660;5.824;2022-07-22T17:41:32;24.6;70.0
45383;DHT22;42455;51.660;5.824;2022-07-22T17:46:38;24.4;70.0
45383;DHT22;42455;51.660;5.824;2022-07-22T17:51:44;24.3;70.0
45383;DHT22;42455;51.660;5.824;2022-07-22T17:56:51;24.2;70.5
45383;DHT22;42455;51.660;5.824;2022-07-22T18:01:57;24.1;71.0
45383;DHT22;42455;51.660;5.824;2022-07-22T18:07:03;24.0;71.5
45383;DHT22;42455;51.660;5.824;2022-07-22T18:12:09;24.0;71.5
45383;DHT22;42455;51.660;5.824;2022-07-22T18:17:15;23.9;72.0
45383;DHT22;42455;51.660;5.824;2022-07-22T18:22:22;23.9;72.0
45383;DHT22;42455;51.660;5.824;2022-07-22T18:32:34;23.6;72.5
45383;DHT22;42455;51.660;5.824;2022-07-22T18:37:40;23.5;73.0
45383;DHT22;42455;51.660;5.824;2022-07-22T18:42:46;23.4;73.5
45383;DHT22;42455;51.660;5.824;2022-07-22T18:47:53;23.4;74.0
45383;DHT22;42455;51.660;5.824;2022-07-22T18:52:59;23.3;74.0
45383;DHT22;42455;51.660;5.824;2022-07-22T18:58:05;23.2;74.5
45383;DHT22;42455;51.660;5.824;2022-07-22T19:03:12;23.1;74.5
45383;DHT22;42455;51.660;5.824;2022-07-22T19:08:17;23.0;74.5
45383;DHT22;42455;51.660;5.824;2022-07-22T19:13:24;22.9;75.0
45383;DHT22;42455;51.660;5.824;2022-07-22T19:18:30;22.8;75.0
45383;DHT22;42455;51.660;5.824;2022-07-22T19:23:36;22.7;75.5
45383;DHT22;42455;51.660;5.824;2022-07-22T19:28:42;22.6;75.5
45383;DHT22;42455;51.660;5.824;2022-07-22T19:33:49;22.5;76.0
45383;DHT22;42455;51.660;5.824;2022-07-22T19:38:55;22.4;76.5
45383;DHT22;42455;51.660;5.824;2022-07-22T19:44:01;22.3;77.0
45383;DHT22;42455;51.660;5.824;2022-07-22T19:49:07;22.2;77.5
45383;DHT22;42455;51.660;5.824;2022-07-22T19:54:13;22.1;78.0
45383;DHT22;42455;51.660;5.824;2022-07-22T20:04:26;21.9;77.5
45383;DHT22;42455;51.660;5.824;2022-07-22T20:09:32;21.9;78.0
45383;DHT22;42455;51.660;5.824;2022-07-22T20:14:38;21.7;78.5
45383;DHT22;42455;51.660;5.824;2022-07-22T20:19:44;21.7;78.5
45383;DHT22;42455;51.660;5.824;2022-07-22T20:24:51;21.6;78.5
45383;DHT22;42455;51.660;5.824;2022-07-22T20:29:57;21.5;78.5
45383;DHT22;42455;51.660;5.824;2022-07-22T20:35:03;21.4;79.0
45383;DHT22;42455;51.660;5.824;2022-07-22T20:40:10;21.3;79.5
45383;DHT22;42455;51.660;5.824;2022-07-22T20:45:15;21.2;80.5
45383;DHT22;42455;51.660;5.824;2022-07-22T20:50:21;21.1;81.0
45383;DHT22;42455;51.660;5.824;2022-07-22T20:55:27;20.9;81.5
45383;DHT22;42455;51.660;5.824;2022-07-22T21:00:33;20.8;82.0
45383;DHT22;42455;51.660;5.824;2022-07-22T21:05:39;20.7;82.5
45383;DHT22;42455;51.660;5.824;2022-07-22T21:10:46;20.5;83.0
45383;DHT22;42455;51.660;5.824;2022-07-22T21:15:52;20.5;83.5
45383;DHT22;42455;51.660;5.824;2022-07-22T21:20:57;20.4;83.5
45383;DHT22;42455;51.660;5.824;2022-07-22T21:26:03;20.3;84.0
45383;DHT22;42455;51.660;5.824;2022-07-22T21:31:09;20.2;84.5
45383;DHT22;42455;51.660;5.824;2022-07-22T21:36:16;20.2;85.0
45383;DHT22;42455;51.660;5.824;2022-07-22T21:41:22;20.1;85.5
45383;DHT22;42455;51.660;5.824;2022-07-22T21:46:28;20.1;85.5
45383;DHT22;42455;51.660;5.824;2022-07-22T21:51:34;20.0;86.0
45383;DHT22;42455;51.660;5.824;2022-07-22T21:56:40;20.0;86.0
45383;DHT22;42455;51.660;5.824;2022-07-22T22:01:47;20.0;86.0
45383;DHT22;42455;51.660;5.824;2022-07-22T22:06:54;20.0;86.5
45383;DHT22;42455;51.660;5.824;2022-07-22T22:11:59;19.9;87.0
45383;DHT22;42455;51.660;5.824;2022-07-22T22:17:05;19.9;87.0
45383;DHT22;42455;51.660;5.824;2022-07-22T22:22:11;19.9;87.5
45383;DHT22;42455;51.660;5.824;2022-07-22T22:27:18;19.9;87.5
45383;DHT22;42455;51.660;5.824;2022-07-22T22:32:24;19.8;87.5
45383;DHT22;42455;51.660;5.824;2022-07-22T22:37:30;19.8;88.0
45383;DHT22;42455;51.660;5.824;2022-07-22T22:42:36;19.8;88.0
45383;DHT22;42455;51.660;5.824;2022-07-22T22:47:43;19.8;87.5
45383;DHT22;42455;51.660;5.824;2022-07-22T22:52:49;19.7;87.5
45383;DHT22;42455;51.660;5.824;2022-07-22T22:57:55;19.7;88.0
45383;DHT22;42455;51.660;5.824;2022-07-22T23:03:01;19.6;88.0
45383;DHT22;42455;51.660;5.824;2022-07-22T23:08:07;19.6;88.0
45383;DHT22;42455;51.660;5.824;2022-07-22T23:13:14;19.5;88.5
45383;DHT22;42455;51.660;5.824;2022-07-22T23:18:20;19.5;88.5
45383;DHT22;42455;51.660;5.824;2022-07-22T23:28:32;19.4;89.5
45383;DHT22;42455;51.660;5.824;2022-07-22T23:33:38;19.4;89.5
45383;DHT22;42455;51.660;5.824;2022-07-22T23:38:45;19.3;89.5
45383;DHT22;42455;51.660;5.824;2022-07-22T23:43:51;19.3;89.5
45383;DHT22;42455;51.660;5.824;2022-07-22T23:48:57;19.2;89.5
45383;DHT22;42455;51.660;5.824;2022-07-22T23:54:04;19.2;89.5
45383;DHT22;42455;51.660;5.824;2022-07-22T23:59:09;19.2;89.5
